CheckWX is a tool to help pilots better visualize weather data.  It is not intended as a substitute for an official pre-flight weather briefing.

23:33:41 UTC

KRGA METAR
Central Kentucky Regional Airport
Richmond, Kentucky, USA
Current

19 mins ago

KRGA 052315Z AUTO 33004KT 10SM CLR 21/12 A3004 RMK AO2
Observed
Apr-5 @ 23:15 UTC
Wind
  • 330° at 4 KTS
Visibility
Flight Rules
VFR
Cloud Levels
  • Clear skies
Temperature
21°C / 70°F
Dewpoint
12°C / 54°F
Humidity
57%
Altimeter
30.04" Hg
Pressure
1017.32 hPa
Previous

39 mins ago

KRGA 052255Z AUTO 32006KT 10SM CLR 21/12 A3004 RMK AO2
Observed
Apr-5 @ 22:55 UTC
Wind
  • 320° at 6 KTS
Visibility
Flight Rules
VFR
Cloud Levels
  • Clear skies
Temperature
21°C / 70°F
Dewpoint
12°C / 54°F
Humidity
57%
Altimeter
30.04" Hg
Pressure
1017.32 hPa
Previous

59 mins ago

KRGA 052235Z AUTO 33007KT 10SM SCT065 21/12 A3003 RMK AO2
Observed
Apr-5 @ 22:35 UTC
Wind
  • 330° at 7 KTS
Visibility
Flight Rules
VFR
Cloud Levels
  • Scattered at 6,500' AGL
Temperature
21°C / 70°F
Dewpoint
12°C / 54°F
Humidity
57%
Altimeter
30.03" Hg
Pressure
1016.92 hPa